createdAt,value
2019-02-18T00:01:16.272Z,0.51
2019-02-18T00:03:43.659Z,0.45
2019-02-18T00:06:11.152Z,0.46
2019-02-18T00:08:38.318Z,0.34
2019-02-18T00:11:06.404Z,0.29
2019-02-18T00:13:33.714Z,0.34
2019-02-18T00:16:01.953Z,0.34
2019-02-18T00:18:29.211Z,0.20
2019-02-18T00:20:56.793Z,0.11
2019-02-18T00:23:24.734Z,0.10
2019-02-18T00:25:52.529Z,0.13
2019-02-18T00:28:19.992Z,0.14
2019-02-18T00:30:48.073Z,0.12
2019-02-18T00:33:16.242Z,0.09
2019-02-18T00:35:43.531Z,0.11
2019-02-18T00:38:10.768Z,0.05
2019-02-18T00:40:38.621Z,0.02
2019-02-18T00:43:06.913Z,-0.02
2019-02-18T00:45:34.553Z,0.12
2019-02-18T00:48:02.171Z,0.01
2019-02-18T00:50:29.553Z,-0.03
2019-02-18T00:52:57.137Z,-0.11
2019-02-18T00:55:24.270Z,-0.07
2019-02-18T00:57:52.130Z,-0.10
2019-02-18T01:00:19.888Z,-0.15
2019-02-18T01:02:47.130Z,-0.13
2019-02-18T01:05:14.618Z,-0.15
2019-02-18T01:07:42.208Z,-0.19
2019-02-18T01:10:10.575Z,-0.05
2019-02-18T01:12:38.662Z,-0.12
2019-02-18T01:15:08.356Z,-0.17
2019-02-18T01:17:36.260Z,-0.02
2019-02-18T01:20:05.711Z,-0.09
2019-02-18T01:22:33.286Z,-0.29
2019-02-18T01:25:00.576Z,-0.38
2019-02-18T01:27:28.197Z,-0.46
2019-02-18T01:29:56.179Z,-0.53
2019-02-18T01:32:24.397Z,-0.49
2019-02-18T01:34:52.233Z,-0.56
2019-02-18T01:37:20.410Z,-0.57
2019-02-18T01:39:48.090Z,-0.64
2019-02-18T01:42:15.618Z,-0.66
2019-02-18T01:44:43.618Z,-0.74
2019-02-18T01:47:11.281Z,-0.78
2019-02-18T01:49:38.707Z,-0.70
2019-02-18T01:52:06.731Z,-0.80
2019-02-18T01:54:33.870Z,-0.85
2019-02-18T01:57:01.509Z,-0.84
2019-02-18T01:59:28.772Z,-0.85
2019-02-18T02:01:56.604Z,-0.83
2019-02-18T02:04:23.878Z,-0.87
2019-02-18T02:06:51.241Z,-0.88
2019-02-18T02:09:18.937Z,-0.89
2019-02-18T02:11:46.178Z,-0.87
2019-02-18T02:14:14.089Z,-0.91
2019-02-18T02:16:41.653Z,-0.87
2019-02-18T02:19:12.656Z,-0.90
2019-02-18T02:21:39.907Z,-0.85
2019-02-18T02:24:07.283Z,-0.85
2019-02-18T02:26:35.370Z,-0.82
2019-02-18T02:29:03.082Z,-0.84
2019-02-18T02:31:31.045Z,-0.95
2019-02-18T02:33:58.941Z,-0.96
2019-02-18T02:36:26.541Z,-0.87
2019-02-18T02:38:54.187Z,-0.93
2019-02-18T02:41:21.632Z,-1.00
2019-02-18T02:43:49.496Z,-1.01
2019-02-18T02:46:16.626Z,-1.03
2019-02-18T02:48:44.771Z,-1.07
2019-02-18T02:51:13.037Z,-1.07
2019-02-18T02:53:40.429Z,-0.98
2019-02-18T02:56:08.083Z,-0.97
2019-02-18T02:58:35.766Z,-1.04
2019-02-18T03:01:03.786Z,-1.03
2019-02-18T03:03:30.915Z,-1.08
2019-02-18T03:05:58.257Z,-1.16
2019-02-18T03:08:26.428Z,-1.14
2019-02-18T03:10:54.351Z,-1.22
2019-02-18T03:13:21.648Z,-1.28
2019-02-18T03:15:48.991Z,-1.25
2019-02-18T03:18:16.829Z,-1.30
2019-02-18T03:20:44.323Z,-1.29
2019-02-18T03:23:11.634Z,-1.37
2019-02-18T03:25:39.452Z,-1.26
2019-02-18T03:28:24.187Z,-1.23
2019-02-18T03:31:00.839Z,-1.28
2019-02-18T03:33:48.662Z,-1.34
2019-02-18T03:36:16.132Z,-1.42
2019-02-18T03:38:44.195Z,-1.40
2019-02-18T03:41:12.174Z,-1.21
2019-02-18T03:43:39.799Z,-1.39
2019-02-18T03:46:07.307Z,-1.35
2019-02-18T03:48:34.667Z,-1.46
2019-02-18T03:51:02.090Z,-1.45
2019-02-18T03:53:29.349Z,-1.53
2019-02-18T03:55:57.661Z,-1.57
2019-02-18T03:58:25.177Z,-1.61
2019-02-18T04:00:53.023Z,-1.62
2019-02-18T04:03:20.547Z,-1.62
2019-02-18T04:05:47.922Z,-1.59
2019-02-18T04:08:15.311Z,-1.63
2019-02-18T04:10:42.855Z,-1.66
2019-02-18T04:13:10.721Z,-1.74
2019-02-18T04:15:38.115Z,-1.71
2019-02-18T04:18:05.538Z,-1.84
2019-02-18T04:20:32.880Z,-1.86
2019-02-18T04:23:00.403Z,-1.84
2019-02-18T04:25:28.655Z,-1.88
2019-02-18T04:27:56.754Z,-1.88
2019-02-18T04:30:24.369Z,-1.81
2019-02-18T04:32:52.246Z,-1.84
2019-02-18T04:35:20.108Z,-1.83
2019-02-18T04:37:47.756Z,-1.92
2019-02-18T04:40:15.030Z,-1.98
2019-02-18T04:42:43.072Z,-1.90
2019-02-18T04:45:10.807Z,-1.95
2019-02-18T04:47:38.343Z,-1.89
2019-02-18T04:50:05.998Z,-1.97
2019-02-18T04:52:34.462Z,-2.00
2019-02-18T04:55:01.928Z,-1.95
2019-02-18T04:57:31.364Z,-2.01
2019-02-18T04:59:59.172Z,-1.99
2019-02-18T05:02:27.213Z,-1.98
2019-02-18T05:04:54.395Z,-2.01
2019-02-18T05:07:21.995Z,-2.02
2019-02-18T05:09:49.831Z,-2.07
2019-02-18T05:12:17.828Z,-2.12
2019-02-18T05:14:45.374Z,-2.04
2019-02-18T05:17:12.797Z,-2.00
2019-02-18T05:19:40.374Z,-2.01
2019-02-18T05:22:07.912Z,-1.96
2019-02-18T05:24:35.390Z,-1.97
2019-02-18T05:27:03.244Z,-2.01
2019-02-18T05:29:30.698Z,-2.06
2019-02-18T05:31:58.374Z,-2.07
2019-02-18T05:34:25.768Z,-2.10
2019-02-18T05:36:54.009Z,-2.07
2019-02-18T05:39:21.647Z,-2.09
2019-02-18T05:41:49.157Z,-2.08
2019-02-18T05:44:16.571Z,-1.93
2019-02-18T05:46:44.187Z,-1.95
2019-02-18T05:49:12.043Z,-2.00
2019-02-18T05:51:39.543Z,-2.04
2019-02-18T05:54:07.282Z,-2.08
2019-02-18T05:56:34.912Z,-2.02
2019-02-18T05:59:02.330Z,-2.03
2019-02-18T06:01:30.496Z,-2.04
2019-02-18T06:04:00.080Z,-2.06
2019-02-18T06:06:27.616Z,-2.08
2019-02-18T06:08:55.778Z,-2.08
2019-02-18T06:11:23.635Z,-2.10
2019-02-18T06:13:51.350Z,-2.15
2019-02-18T06:16:19.040Z,-1.99
2019-02-18T06:18:46.338Z,-1.97
2019-02-18T06:21:14.634Z,-2.08
2019-02-18T06:23:42.206Z,-2.05
2019-02-18T06:26:09.857Z,-2.08
2019-02-18T06:28:37.397Z,-2.04
2019-02-18T06:31:05.203Z,-2.16
2019-02-18T06:33:32.626Z,-2.17
2019-02-18T06:36:00.746Z,-2.18
2019-02-18T06:38:28.044Z,-2.17
2019-02-18T06:40:55.658Z,-2.17
2019-02-18T06:43:23.222Z,-2.19
2019-02-18T06:46:00.778Z,-2.21
2019-02-18T06:48:33.038Z,-2.19
2019-02-18T06:51:00.929Z,-2.16
2019-02-18T06:53:28.098Z,-2.10
2019-02-18T06:55:55.996Z,-2.05
2019-02-18T06:58:29.617Z,-2.02
2019-02-18T07:01:01.668Z,-2.01
2019-02-18T07:03:38.837Z,-1.91
2019-02-18T07:06:19.609Z,-1.86
2019-02-18T07:08:52.462Z,-1.87
2019-02-18T07:11:25.003Z,-1.79
2019-02-18T07:13:52.923Z,-1.76
2019-02-18T07:16:20.993Z,-1.71
2019-02-18T07:18:48.758Z,-1.69
2019-02-18T07:21:16.917Z,-1.65
2019-02-18T07:23:44.236Z,-1.62
2019-02-18T07:26:11.915Z,-1.58
2019-02-18T07:28:39.516Z,-1.54
2019-02-18T07:31:06.815Z,-1.48
2019-02-18T07:33:34.299Z,-1.38
2019-02-18T07:36:02.499Z,-1.40
2019-02-18T07:38:30.101Z,-1.29
2019-02-18T07:40:57.652Z,-1.26
2019-02-18T07:43:24.872Z,-1.17
2019-02-18T07:45:52.738Z,-0.96
2019-02-18T07:48:20.635Z,-0.62
2019-02-18T07:50:48.795Z,-0.24
2019-02-18T07:53:16.117Z,0.17
2019-02-18T07:55:44.277Z,0.66
2019-02-18T07:58:20.637Z,1.00
2019-02-18T08:00:48.198Z,1.41
2019-02-18T08:03:15.632Z,1.90
2019-02-18T08:05:43.482Z,2.01
2019-02-18T08:08:10.761Z,2.10
2019-02-18T08:10:37.953Z,2.35
2019-02-18T08:13:05.402Z,2.57
2019-02-18T08:15:33.269Z,2.94
2019-02-18T08:18:00.984Z,3.25
2019-02-18T08:20:28.490Z,3.33
2019-02-18T08:22:56.311Z,3.64
2019-02-18T08:25:24.070Z,3.81
2019-02-18T08:27:51.610Z,4.14
2019-02-18T08:30:18.841Z,4.05
2019-02-18T08:32:46.352Z,4.27
2019-02-18T08:35:13.657Z,4.50
2019-02-18T08:37:41.287Z,4.59
2019-02-18T08:40:08.946Z,4.78
2019-02-18T08:42:36.566Z,4.93
2019-02-18T08:45:06.293Z,5.22
2019-02-18T08:47:33.798Z,5.48
2019-02-18T08:50:01.151Z,5.57
2019-02-18T08:52:28.817Z,5.71
2019-02-18T08:54:57.035Z,5.96
2019-02-18T08:57:24.775Z,6.27
2019-02-18T08:59:52.546Z,6.40
2019-02-18T09:02:20.189Z,6.66
2019-02-18T09:04:47.751Z,6.84
2019-02-18T09:07:15.351Z,7.12
2019-02-18T09:09:43.202Z,7.45
2019-02-18T09:12:10.894Z,7.50
2019-02-18T09:14:38.475Z,7.41
2019-02-18T09:17:05.744Z,7.49
2019-02-18T09:19:33.350Z,7.61
2019-02-18T09:22:21.705Z,7.81
2019-02-18T09:24:59.174Z,7.90
2019-02-18T09:27:26.538Z,8.26
2019-02-18T09:29:54.175Z,8.47
2019-02-18T09:32:21.910Z,8.68
2019-02-18T09:34:53.285Z,9.08
2019-02-18T09:37:19.186Z,9.18
2019-02-18T09:39:46.772Z,9.26
2019-02-18T09:42:14.193Z,9.52
2019-02-18T09:44:41.909Z,9.64
2019-02-18T09:47:09.761Z,9.99
2019-02-18T09:49:37.262Z,10.10
2019-02-18T09:52:04.694Z,10.15
2019-02-18T09:54:32.364Z,10.25
2019-02-18T09:56:59.976Z,10.20
2019-02-18T09:59:27.539Z,10.10
2019-02-18T10:01:55.040Z,10.26
2019-02-18T10:04:22.815Z,10.31
2019-02-18T10:06:51.055Z,10.32
2019-02-18T10:09:18.732Z,10.32
2019-02-18T10:11:46.290Z,10.60
2019-02-18T10:14:13.809Z,10.98
2019-02-18T10:16:41.362Z,11.24
2019-02-18T10:19:09.238Z,11.55
2019-02-18T10:21:37.046Z,11.76
2019-02-18T10:24:05.114Z,12.06
2019-02-18T10:26:32.398Z,12.43
2019-02-18T10:29:00.622Z,12.64
2019-02-18T10:31:28.011Z,12.88
2019-02-18T10:33:57.579Z,13.03
2019-02-18T10:36:25.116Z,13.08
2019-02-18T10:38:52.992Z,13.31
2019-02-18T10:41:20.469Z,13.53
2019-02-18T10:43:48.070Z,13.59
2019-02-18T10:46:15.599Z,14.04
2019-02-18T10:48:46.989Z,14.53
2019-02-18T10:51:14.188Z,14.56
2019-02-18T10:53:42.223Z,14.70
2019-02-18T10:56:09.573Z,14.98
2019-02-18T10:58:36.887Z,15.30
2019-02-18T11:01:05.250Z,15.40
2019-02-18T11:03:32.531Z,15.71
2019-02-18T11:06:00.367Z,15.73
2019-02-18T11:08:27.778Z,16.03
2019-02-18T11:10:55.690Z,16.14
2019-02-18T11:13:23.974Z,16.26
2019-02-18T11:15:51.734Z,16.46
2019-02-18T11:18:23.352Z,16.87
2019-02-18T11:20:51.103Z,16.79
2019-02-18T11:23:18.902Z,16.86
2019-02-18T11:25:46.585Z,16.76
2019-02-18T11:28:15.145Z,16.72
2019-02-18T11:30:42.682Z,16.85
2019-02-18T11:33:10.154Z,16.72
2019-02-18T11:35:38.298Z,16.78
2019-02-18T11:38:07.054Z,17.16
2019-02-18T11:40:34.999Z,17.25
2019-02-18T11:43:02.997Z,17.29
2019-02-18T11:45:30.506Z,17.50
2019-02-18T11:47:57.997Z,17.47
2019-02-18T11:50:26.359Z,17.26
2019-02-18T11:52:54.258Z,17.33
2019-02-18T11:55:22.098Z,17.37
2019-02-18T11:57:50.002Z,17.40
2019-02-18T12:00:18.259Z,17.40
2019-02-18T12:02:45.956Z,17.66
2019-02-18T12:05:14.372Z,17.51
2019-02-18T12:07:45.382Z,17.27
2019-02-18T12:10:13.403Z,17.21
2019-02-18T12:12:41.708Z,17.27
2019-02-18T12:15:09.827Z,16.94
2019-02-18T12:17:37.275Z,16.89
2019-02-18T12:20:07.562Z,16.83
2019-02-18T12:22:35.008Z,16.64
2019-02-18T12:25:02.912Z,16.74
2019-02-18T12:27:32.208Z,16.63
2019-02-18T12:30:00.246Z,16.29
2019-02-18T12:32:28.164Z,15.94
2019-02-18T12:34:55.941Z,15.83
2019-02-18T12:37:23.679Z,15.57
2019-02-18T12:39:51.221Z,15.40
2019-02-18T12:42:19.503Z,15.06
2019-02-18T12:44:51.436Z,15.12
2019-02-18T12:47:19.259Z,15.13
2019-02-18T12:49:47.672Z,15.02
2019-02-18T12:52:15.213Z,15.08
2019-02-18T12:54:42.455Z,15.09
2019-02-18T12:57:10.359Z,14.97
2019-02-18T12:59:38.180Z,14.91
2019-02-18T13:02:06.079Z,14.81
2019-02-18T13:04:37.467Z,14.62
2019-02-18T13:07:05.094Z,14.61
2019-02-18T13:09:35.392Z,14.50
2019-02-18T13:12:02.780Z,14.56
2019-02-18T13:14:30.443Z,14.47
2019-02-18T13:16:59.270Z,14.45
2019-02-18T13:19:26.704Z,14.40
2019-02-18T13:21:54.034Z,14.21
2019-02-18T13:24:22.034Z,14.12
2019-02-18T13:26:49.562Z,14.06
2019-02-18T13:29:17.334Z,14.11
2019-02-18T13:31:45.142Z,14.11
2019-02-18T13:34:12.802Z,14.08
2019-02-18T13:36:40.560Z,14.07
2019-02-18T13:39:08.514Z,14.09
2019-02-18T13:41:36.980Z,14.21
2019-02-18T13:44:07.437Z,14.15
2019-02-18T13:46:35.105Z,14.17
2019-02-18T13:49:03.249Z,14.03
2019-02-18T13:51:31.310Z,13.98
2019-02-18T13:53:58.535Z,14.10
2019-02-18T13:56:26.434Z,13.88
2019-02-18T13:58:54.709Z,13.98
2019-02-18T14:01:23.232Z,14.03
2019-02-18T14:03:54.905Z,14.05
2019-02-18T14:06:23.387Z,13.97
2019-02-18T14:08:51.694Z,14.03
2019-02-18T14:11:19.147Z,13.84
2019-02-18T14:13:56.366Z,13.87
2019-02-18T14:16:24.558Z,13.91
2019-02-18T14:18:52.798Z,13.94
2019-02-18T14:21:20.746Z,14.04
2019-02-18T14:23:48.125Z,14.01
2019-02-18T14:26:15.765Z,13.92
2019-02-18T14:28:43.475Z,13.95
2019-02-18T14:31:15.377Z,13.92
2019-02-18T14:33:45.631Z,13.98
2019-02-18T14:36:13.670Z,13.93
2019-02-18T14:38:41.929Z,13.96
2019-02-18T14:41:10.796Z,14.03
2019-02-18T14:43:38.785Z,13.94
2019-02-18T14:46:06.835Z,13.93
2019-02-18T14:48:34.527Z,13.98
2019-02-18T14:51:02.393Z,13.87
2019-02-18T14:53:30.132Z,13.88
2019-02-18T14:55:57.368Z,13.93
2019-02-18T14:58:25.301Z,13.94
2019-02-18T15:00:53.101Z,13.89
2019-02-18T15:03:20.883Z,13.96
2019-02-18T15:05:50.241Z,13.92
2019-02-18T15:08:18.185Z,13.94
2019-02-18T15:10:45.694Z,13.98
2019-02-18T15:13:15.990Z,14.01
2019-02-18T15:15:43.811Z,13.93
2019-02-18T15:18:11.734Z,13.92
2019-02-18T15:20:39.615Z,13.90
2019-02-18T15:23:07.483Z,13.87
2019-02-18T15:25:35.756Z,13.89
2019-02-18T15:28:03.444Z,13.89
2019-02-18T15:30:30.939Z,13.79
2019-02-18T15:32:59.311Z,13.76
2019-02-18T15:35:26.505Z,13.73
2019-02-18T15:37:54.509Z,13.75
2019-02-18T15:40:22.373Z,13.75
2019-02-18T15:42:50.548Z,13.64
2019-02-18T15:45:18.070Z,13.62
2019-02-18T15:47:45.539Z,13.54
2019-02-18T15:50:14.277Z,13.53
2019-02-18T15:52:42.080Z,13.49
2019-02-18T15:55:10.940Z,13.47
2019-02-18T15:57:39.160Z,13.32
2019-02-18T16:00:11.539Z,13.39
2019-02-18T16:02:39.223Z,13.26
2019-02-18T16:05:08.892Z,13.27
2019-02-18T16:07:36.752Z,13.25
2019-02-18T16:10:04.841Z,13.09
2019-02-18T16:12:33.247Z,13.13
2019-02-18T16:15:00.721Z,12.99
2019-02-18T16:17:28.106Z,12.92
2019-02-18T16:19:56.207Z,12.85
2019-02-18T16:22:23.784Z,12.76
2019-02-18T16:24:51.045Z,12.62
2019-02-18T16:27:18.770Z,12.44
2019-02-18T16:29:46.094Z,12.28
2019-02-18T16:32:14.223Z,12.26
2019-02-18T16:34:42.010Z,12.26
2019-02-18T16:37:11.510Z,12.21
2019-02-18T16:39:38.732Z,11.95
2019-02-18T16:42:07.375Z,11.85
2019-02-18T16:44:34.806Z,11.62
2019-02-18T16:47:02.307Z,11.26
2019-02-18T16:49:29.608Z,11.19
2019-02-18T16:51:57.463Z,11.30
2019-02-18T16:54:25.227Z,11.28
2019-02-18T16:56:52.869Z,11.20
2019-02-18T16:59:20.222Z,10.85
2019-02-18T17:01:47.967Z,10.58
2019-02-18T17:04:15.807Z,10.46
2019-02-18T17:06:43.680Z,10.37
2019-02-18T17:09:12.874Z,10.17
2019-02-18T17:11:41.037Z,10.28
2019-02-18T17:14:08.863Z,10.35
2019-02-18T17:16:36.106Z,10.37
2019-02-18T17:19:03.449Z,10.24
2019-02-18T17:21:31.267Z,9.92
2019-02-18T17:23:58.857Z,10.24
2019-02-18T17:26:26.322Z,10.17
2019-02-18T17:28:54.451Z,10.39
2019-02-18T17:31:22.527Z,10.33
2019-02-18T17:33:50.067Z,10.32
2019-02-18T17:36:17.386Z,10.24
2019-02-18T17:38:44.909Z,10.20
2019-02-18T17:41:12.919Z,10.00
2019-02-18T17:43:41.079Z,10.05
2019-02-18T17:46:09.629Z,9.92
2019-02-18T17:48:37.197Z,9.48
2019-02-18T17:51:04.769Z,9.28
2019-02-18T17:53:32.298Z,9.01
2019-02-18T17:55:59.732Z,8.94
2019-02-18T17:58:26.974Z,8.67
2019-02-18T18:00:56.119Z,8.64
2019-02-18T18:03:24.171Z,8.55
2019-02-18T18:05:51.954Z,8.61
2019-02-18T18:08:19.516Z,8.61
2019-02-18T18:10:46.838Z,8.62
2019-02-18T18:13:14.090Z,8.49
2019-02-18T18:15:41.824Z,8.24
2019-02-18T18:18:10.297Z,8.51
2019-02-18T18:20:38.722Z,8.36
2019-02-18T18:23:06.587Z,8.12
2019-02-18T18:25:33.864Z,8.20
2019-02-18T18:28:01.632Z,8.02
2019-02-18T18:30:29.025Z,7.85
2019-02-18T18:32:57.027Z,8.10
2019-02-18T18:35:24.670Z,7.94
2019-02-18T18:37:52.465Z,7.96
2019-02-18T18:40:20.235Z,7.91
2019-02-18T18:42:48.190Z,7.92
2019-02-18T18:45:15.967Z,7.80
2019-02-18T18:47:44.107Z,7.96
2019-02-18T18:50:14.325Z,7.83
2019-02-18T18:52:42.477Z,8.05
2019-02-18T18:55:10.180Z,7.75
2019-02-18T18:57:37.534Z,7.66
2019-02-18T19:00:08.329Z,7.77
2019-02-18T19:02:35.638Z,7.49
2019-02-18T19:05:03.958Z,7.64
2019-02-18T19:07:31.531Z,7.37
2019-02-18T19:09:59.082Z,7.34
2019-02-18T19:12:26.730Z,7.09
2019-02-18T19:14:54.321Z,6.86
2019-02-18T19:17:22.005Z,6.89
2019-02-18T19:19:57.552Z,6.89
2019-02-18T19:22:18.874Z,6.66
2019-02-18T19:24:46.811Z,6.61
2019-02-18T19:27:14.081Z,6.63
2019-02-18T19:29:41.638Z,6.54
2019-02-18T19:32:08.910Z,6.66
2019-02-18T19:34:36.598Z,6.63
2019-02-18T19:37:04.272Z,6.69
2019-02-18T19:39:31.807Z,6.64
2019-02-18T19:42:00.062Z,6.52
2019-02-18T19:44:27.498Z,6.52
2019-02-18T19:46:55.661Z,6.43
2019-02-18T19:49:23.168Z,6.31
2019-02-18T19:51:51.245Z,6.01
2019-02-18T19:54:18.740Z,5.74
2019-02-18T19:56:46.352Z,5.99
2019-02-18T19:59:13.813Z,6.15
2019-02-18T20:01:45.728Z,5.82
2019-02-18T20:04:13.423Z,5.64
2019-02-18T20:06:40.929Z,5.62
2019-02-18T20:09:12.936Z,5.50
2019-02-18T20:11:41.167Z,5.59
2019-02-18T20:14:08.689Z,5.70
2019-02-18T20:16:36.288Z,5.54
2019-02-18T20:19:03.692Z,5.64
2019-02-18T20:21:31.155Z,5.50
2019-02-18T20:23:58.335Z,5.36
2019-02-18T20:26:26.277Z,5.27
2019-02-18T20:28:54.244Z,5.25
2019-02-18T20:31:21.767Z,5.03
2019-02-18T20:33:49.212Z,4.79
2019-02-18T20:36:16.475Z,4.50
2019-02-18T20:38:46.097Z,4.42
2019-02-18T20:41:13.572Z,4.43
2019-02-18T20:43:41.314Z,4.65
2019-02-18T20:46:09.266Z,4.40
2019-02-18T20:48:37.324Z,4.62
2019-02-18T20:51:04.778Z,4.37
2019-02-18T20:53:32.432Z,4.36
2019-02-18T20:55:59.948Z,4.35
2019-02-18T20:58:28.151Z,4.31
2019-02-18T21:00:55.721Z,4.25
2019-02-18T21:03:23.009Z,4.19
2019-02-18T21:05:50.343Z,3.96
2019-02-18T21:08:18.010Z,3.78
2019-02-18T21:10:45.556Z,3.72
2019-02-18T21:13:13.108Z,3.95
2019-02-18T21:15:40.912Z,3.97
2019-02-18T21:18:08.431Z,3.81
2019-02-18T21:20:35.914Z,3.93
2019-02-18T21:23:04.100Z,3.96
2019-02-18T21:25:31.614Z,3.80
2019-02-18T21:27:58.894Z,3.71
2019-02-18T21:30:26.676Z,3.71
2019-02-18T21:32:53.977Z,3.51
2019-02-18T21:35:21.792Z,3.60
2019-02-18T21:37:49.758Z,3.51
2019-02-18T21:40:17.019Z,3.68
2019-02-18T21:42:44.446Z,3.43
2019-02-18T21:45:12.089Z,3.35
2019-02-18T21:47:39.739Z,3.37
2019-02-18T21:50:07.396Z,3.20
2019-02-18T21:52:35.058Z,3.13
2019-02-18T21:55:02.693Z,2.96
2019-02-18T21:57:30.530Z,2.84
2019-02-18T21:59:58.194Z,2.82
2019-02-18T22:02:25.939Z,2.72
2019-02-18T22:04:53.337Z,2.71
2019-02-18T22:07:21.073Z,2.68
2019-02-18T22:09:49.180Z,2.61
2019-02-18T22:12:16.465Z,2.71
2019-02-18T22:14:43.686Z,2.59
2019-02-18T22:17:10.921Z,2.61
2019-02-18T22:19:38.326Z,2.70
2019-02-18T22:22:06.214Z,2.61
2019-02-18T22:24:34.033Z,2.49
2019-02-18T22:27:02.038Z,2.32
2019-02-18T22:29:30.353Z,2.33
2019-02-18T22:31:57.805Z,2.23
2019-02-18T22:34:25.526Z,2.27
2019-02-18T22:36:53.295Z,2.36
2019-02-18T22:39:20.995Z,2.29
2019-02-18T22:41:49.302Z,2.13
2019-02-18T22:44:17.693Z,2.06
2019-02-18T22:46:45.598Z,1.98
2019-02-18T22:49:13.009Z,1.99
2019-02-18T22:51:40.906Z,2.09
2019-02-18T22:54:08.653Z,2.05
2019-02-18T22:56:36.360Z,1.92
2019-02-18T22:59:03.921Z,2.04
2019-02-18T23:01:31.646Z,1.88
2019-02-18T23:03:59.502Z,1.94
2019-02-18T23:06:27.964Z,1.82
2019-02-18T23:08:55.520Z,1.85
2019-02-18T23:11:26.667Z,1.70
2019-02-18T23:13:54.681Z,1.74
2019-02-18T23:16:22.557Z,1.72
2019-02-18T23:18:49.967Z,1.60
2019-02-18T23:21:17.836Z,1.64
2019-02-18T23:23:45.283Z,1.67
2019-02-18T23:26:12.986Z,1.58
2019-02-18T23:28:40.956Z,1.51
2019-02-18T23:31:08.971Z,1.53
2019-02-18T23:33:36.252Z,1.58
2019-02-18T23:36:03.513Z,1.57
2019-02-18T23:38:30.781Z,1.43
2019-02-18T23:40:58.131Z,1.35
2019-02-18T23:43:26.390Z,1.50
2019-02-18T23:45:54.351Z,1.41
2019-02-18T23:48:21.888Z,1.38
2019-02-18T23:50:49.267Z,1.34
2019-02-18T23:53:20.674Z,1.46
2019-02-18T23:55:48.750Z,1.45
2019-02-18T23:58:16.423Z,1.39
